Edzard Schulte — 2CVX9 — position and weather

sailwx.info

Track history (hours):
 
Tides and Currents Weather Stations Pressure Air Temp Water Temp Dewpoint Dewpoint Depression Visibility Wind Speed Wind Dir Waves Ship Positions

Edzard Schulte

Last reported at 2016-Jun-14 03:29 UTC. Time now 2016-Jun-26 01:06 UTC.
Position N 46°11' W 072°54'.
Warning: this ship's position is 11 days out of date.

Length 145 m; draft 6.6 m.

Type: Tanker. MMSI: 235076245.

Date/timePositionNaut miles runAvg speedWind from/ knotsBaromVisibWave heightAir tempDewpointWater temp
2016-Jun-14 03:29N 46°11' W 072°54'1112.3
2016-Jun-14 02:34N 46°03' W 073°06'1212.3
2016-Jun-14 01:33N 45°53' W 073°15'1313.0
2016-Jun-14 00:33N 45°42' W 073°26'5 4.6
2016-Jun-13 23:31N 45°38' W 073°29'0 0.0
2016-Jun-13 22:31N 45°38' W 073°29'0 0.0
2016-Jun-13 20:31N 45°38' W 073°29'0 0.0
2016-Jun-13 15:19N 45°38' W 073°29'0 0.0
2016-Jun-13 14:07N 45°38' W 073°29'0 0.0
2016-Jun-13 13:25N 45°38' W 073°29'0 0.0
2016-Jun-13 12:13N 45°38' W 073°29'11 3.5
2016-Jun-13 09:11N 45°27' W 073°30'4 4.1
2016-Jun-13 08:13N 45°24' W 073°34'1 2.1
2016-Jun-13 07:33N 45°24' W 073°36'5 4.9
2016-Jun-13 06:33N 45°25' W 073°43'10 9.7
2016-Jun-13 05:33N 45°20' W 073°55'2 1.5
2016-Jun-13 04:33N 45°18' W 073°56'120 8.3
2016-Jun-12 14:08N 44°12' W 076°16'6 9.8
2016-Jun-12 13:29N 44°07' W 076°22'  
2016-Jun-09 11:05N 45°14' W 074°02'4 7.1
2016-Jun-09 10:30N 45°16' W 073°57'3 2.7
2016-Jun-09 09:33N 45°18' W 073°55'1 1.1
2016-Jun-09 08:33N 45°19' W 073°55'6 6.4
2016-Jun-09 07:33N 45°24' W 073°48'7 6.7
2016-Jun-09 06:33N 45°24' W 073°38'10 2.5
2016-Jun-09 02:32N 45°33' W 073°31'0 0.3
2016-Jun-09 01:21N 45°33' W 073°31'0 0.0
2016-Jun-09 00:28N 45°33' W 073°31'0 0.0
2016-Jun-08 23:33N 45°33' W 073°31'0 0.0
2016-Jun-08 22:30N 45°33' W 073°31'0 0.0
2016-Jun-08 21:31N 45°33' W 073°31'0 0.0
2016-Jun-08 20:28N 45°33' W 073°31'0 0.0
2016-Jun-08 19:29N 45°33' W 073°31'0 0.0
2016-Jun-08 18:34N 45°33' W 073°31'0 0.0
2016-Jun-08 17:33N 45°33' W 073°31'0 0.0
2016-Jun-08 16:34N 45°33' W 073°31'0 0.0
2016-Jun-08 15:28N 45°33' W 073°31'0 0.0
2016-Jun-08 14:33N 45°33' W 073°31'0 0.0
2016-Jun-08 13:33N 45°33' W 073°31'9 4.5
2016-Jun-08 11:33N 45°42' W 073°27'9 9.0
2016-Jun-08 10:34N 45°49' W 073°19'9 9.0
2016-Jun-08 09:33N 45°57' W 073°13'9 8.7
2016-Jun-08 08:33N 46°04' W 073°05'9 9.1
2016-Jun-08 07:34N 46°10' W 072°56'  
Track history (hours):
 
Tides and Currents Weather Stations Pressure Air Temp Water Temp Dewpoint Dewpoint Depression Visibility Wind Speed Wind Dir Waves Ship Positions

Edzard Schulte

Last reported at 2016-Jun-14 03:29 UTC. Time now 2016-Jun-26 01:06 UTC.
Position N 46°11' W 072°54'.
Warning: this ship's position is 11 days out of date.

Length 145 m; draft 6.6 m.

Type: Tanker. MMSI: 235076245.

Date/timePositionNaut miles runAvg speedWind from/ knotsBaromVisibWave heightAir tempDewpointWater temp
2016-Jun-14 03:29N 46°11' W 072°54'1112.3
2016-Jun-14 02:34N 46°03' W 073°06'1212.3
2016-Jun-14 01:33N 45°53' W 073°15'1313.0
2016-Jun-14 00:33N 45°42' W 073°26'5 4.6
2016-Jun-13 23:31N 45°38' W 073°29'0 0.0
2016-Jun-13 22:31N 45°38' W 073°29'0 0.0
2016-Jun-13 20:31N 45°38' W 073°29'0 0.0
2016-Jun-13 15:19N 45°38' W 073°29'0 0.0
2016-Jun-13 14:07N 45°38' W 073°29'0 0.0
2016-Jun-13 13:25N 45°38' W 073°29'0 0.0
2016-Jun-13 12:13N 45°38' W 073°29'11 3.5
2016-Jun-13 09:11N 45°27' W 073°30'4 4.1
2016-Jun-13 08:13N 45°24' W 073°34'1 2.1
2016-Jun-13 07:33N 45°24' W 073°36'5 4.9
2016-Jun-13 06:33N 45°25' W 073°43'10 9.7
2016-Jun-13 05:33N 45°20' W 073°55'2 1.5
2016-Jun-13 04:33N 45°18' W 073°56'120 8.3
2016-Jun-12 14:08N 44°12' W 076°16'6 9.8
2016-Jun-12 13:29N 44°07' W 076°22'  
2016-Jun-09 11:05N 45°14' W 074°02'4 7.1
2016-Jun-09 10:30N 45°16' W 073°57'3 2.7
2016-Jun-09 09:33N 45°18' W 073°55'1 1.1
2016-Jun-09 08:33N 45°19' W 073°55'6 6.4
2016-Jun-09 07:33N 45°24' W 073°48'7 6.7
2016-Jun-09 06:33N 45°24' W 073°38'10 2.5
2016-Jun-09 02:32N 45°33' W 073°31'0 0.3
2016-Jun-09 01:21N 45°33' W 073°31'0 0.0
2016-Jun-09 00:28N 45°33' W 073°31'0 0.0
2016-Jun-08 23:33N 45°33' W 073°31'0 0.0
2016-Jun-08 22:30N 45°33' W 073°31'0 0.0
2016-Jun-08 21:31N 45°33' W 073°31'0 0.0
2016-Jun-08 20:28N 45°33' W 073°31'0 0.0
2016-Jun-08 19:29N 45°33' W 073°31'0 0.0
2016-Jun-08 18:34N 45°33' W 073°31'0 0.0
2016-Jun-08 17:33N 45°33' W 073°31'0 0.0
2016-Jun-08 16:34N 45°33' W 073°31'0 0.0
2016-Jun-08 15:28N 45°33' W 073°31'0 0.0
2016-Jun-08 14:33N 45°33' W 073°31'0 0.0
2016-Jun-08 13:33N 45°33' W 073°31'9 4.5
2016-Jun-08 11:33N 45°42' W 073°27'9 9.0
2016-Jun-08 10:34N 45°49' W 073°19'9 9.0
2016-Jun-08 09:33N 45°57' W 073°13'9 8.7
2016-Jun-08 08:33N 46°04' W 073°05'9 9.1
2016-Jun-08 07:34N 46°10' W 072°56'  

Dump ship's entire track history